SBOSBO TFN / GCXO
Speedbird OnlineSpeedbird Online TFN / GCXO

Tenerife Norte Airport
02:04 12°C

Location Tenerife, Spain
Latitude: 28.4827003479
Longitude: -16.3414993286
Web Airport Website | Wikipedia
Altitude 633 Meter / 2076 Feet
Distance 2,905 KM / 1,805 Miles
from London.
Time Zone UTC 0 hours (Atlantic/Canary)
Codes IATA: TFN
ICAO: GCXO
Currency £1 equals EUR 1.14
Runways
RunwayLength (m)Surface
123400Asphalt
303400Asphalt
Radio
TypeDescriptionFrequency
APPAPP119.7
ATISATIS118.575
GNDGND121.7
TWRTWR118.7
Live ATC
METAR GCXO 270130Z AUTO 09007KT 040V130 9999 OVC028 12/06 Q1025
TAF TAF GCXO 262000Z 2621/2721 11006KT 9999 SCT020 TX15/2714Z TN11/2706Z BECMG 2708/2710 35012KT PROB30 TEMPO 2715/2719 33015G25KT
Weather As Of 27 Jan 2023 02:04
Description Overcast clouds
Wind 13 km/h from East (90°)
Cloud Cover 100%
Precipitation Rain: none, Snow: none
Sunrise 07:55
Sunset 18:40
Lounges Sala VIP Nivara Aena, Main Terminal



Support Speedbird Online

© 2017-2023 Speedbird Online